Terminal Aerodrome Forecast
Issued by NWS Central Illinois

Home | Current Version | Previous Version | Text Only | Print | Product List | Glossary On
Versions: 1 2 3 4 5 6 7 8 9 10 11 12 13 14 15 16 17 18 19 20 21 22 23 24 25
000
FTUS43 KILX 301120
TAFPIA
TAF
KPIA 301120Z 3012/0112 VRB03KT P6SM SCT060
      TEMPO 3012/3014 3SM BR
     FM301600 27008KT P6SM SCT050
     FM301800 30010KT P6SM VCTS SCT050CB
     FM010000 36005KT P6SM SCT050
     FM010900 VRB04KT 3SM BR SKC=

USA.gov is the U.S. government's official web portal to all federal, state and local government web resources and services.